sensor_id;sensor_type;location;lat;lon;timestamp;pressure;altitude;pressure_sealevel;temperature;humidity
66681;BME280;53575;51.366;12.350;2023-06-14T00:02:10;100341.00;;;13.93;69.42
66681;BME280;53575;51.366;12.350;2023-06-14T00:04:36;100339.59;;;13.76;69.72
66681;BME280;53575;51.366;12.350;2023-06-14T00:07:03;100332.22;;;13.95;69.53
66681;BME280;53575;51.366;12.350;2023-06-14T00:09:28;100331.19;;;14.02;69.07
66681;BME280;53575;51.366;12.350;2023-06-14T00:11:54;100333.97;;;13.95;69.62
66681;BME280;53575;51.366;12.350;2023-06-14T00:14:19;100330.50;;;13.94;69.68
66681;BME280;53575;51.366;12.350;2023-06-14T00:16:45;100334.88;;;13.92;69.33
66681;BME280;53575;51.366;12.350;2023-06-14T00:19:10;100335.94;;;13.83;69.84
66681;BME280;53575;51.366;12.350;2023-06-14T00:21:37;100335.03;;;13.86;69.93
66681;BME280;53575;51.366;12.350;2023-06-14T00:24:03;100332.47;;;13.83;70.06
66681;BME280;53575;51.366;12.350;2023-06-14T00:26:29;100335.41;;;13.66;70.66
66681;BME280;53575;51.366;12.350;2023-06-14T00:28:55;100331.84;;;13.70;70.76
66681;BME280;53575;51.366;12.350;2023-06-14T00:31:22;100330.03;;;13.74;70.58
66681;BME280;53575;51.366;12.350;2023-06-14T00:33:48;100328.31;;;13.70;70.36
66681;BME280;53575;51.366;12.350;2023-06-14T00:36:13;100336.41;;;13.59;71.21
66681;BME280;53575;51.366;12.350;2023-06-14T00:38:39;100326.00;;;13.53;71.69
66681;BME280;53575;51.366;12.350;2023-06-14T00:41:04;100328.69;;;13.51;71.42
66681;BME280;53575;51.366;12.350;2023-06-14T00:43:30;100325.97;;;13.54;71.70
66681;BME280;53575;51.366;12.350;2023-06-14T00:45:55;100331.31;;;13.50;71.59
66681;BME280;53575;51.366;12.350;2023-06-14T00:48:21;100328.63;;;13.53;71.76
66681;BME280;53575;51.366;12.350;2023-06-14T00:50:47;100326.91;;;13.52;71.93
66681;BME280;53575;51.366;12.350;2023-06-14T00:53:17;100328.81;;;13.42;72.41
66681;BME280;53575;51.366;12.350;2023-06-14T00:55:43;100327.16;;;13.38;72.50
66681;BME280;53575;51.366;12.350;2023-06-14T00:58:10;100327.19;;;13.35;72.63
66681;BME280;53575;51.366;12.350;2023-06-14T01:00:36;100325.38;;;13.38;72.69
66681;BME280;53575;51.366;12.350;2023-06-14T01:03:01;100328.03;;;13.37;72.73
66681;BME280;53575;51.366;12.350;2023-06-14T01:05:28;100332.66;;;13.20;73.53
66681;BME280;53575;51.366;12.350;2023-06-14T01:15:43;100330.91;;;13.22;73.79
66681;BME280;53575;51.366;12.350;2023-06-14T01:18:09;100334.31;;;13.28;73.57
66681;BME280;53575;51.366;12.350;2023-06-14T01:20:43;100336.22;;;13.15;74.25
66681;BME280;53575;51.366;12.350;2023-06-14T01:23:11;100331.97;;;13.08;74.59
66681;BME280;53575;51.366;12.350;2023-06-14T01:25:40;100335.41;;;13.12;74.46
66681;BME280;53575;51.366;12.350;2023-06-14T01:28:09;100338.97;;;13.08;74.90
66681;BME280;53575;51.366;12.350;2023-06-14T01:30:38;100340.75;;;13.09;74.82
66681;BME280;53575;51.366;12.350;2023-06-14T01:33:05;100332.00;;;13.07;74.67
66681;BME280;53575;51.366;12.350;2023-06-14T01:35:31;100336.44;;;13.03;75.38
66681;BME280;53575;51.366;12.350;2023-06-14T01:37:57;100338.16;;;13.04;75.42
66681;BME280;53575;51.366;12.350;2023-06-14T01:40:24;100336.53;;;12.99;75.81
66681;BME280;53575;51.366;12.350;2023-06-14T01:42:50;100331.28;;;12.99;75.61
66681;BME280;53575;51.366;12.350;2023-06-14T01:45:18;100333.03;;;12.98;75.60
66681;BME280;53575;51.366;12.350;2023-06-14T01:47:44;100334.88;;;12.91;76.02
66681;BME280;53575;51.366;12.350;2023-06-14T01:50:10;100334.88;;;12.91;76.01
66681;BME280;53575;51.366;12.350;2023-06-14T01:52:37;100334.00;;;12.89;76.66
66681;BME280;53575;51.366;12.350;2023-06-14T01:55:06;100329.66;;;12.88;76.35
66681;BME280;53575;51.366;12.350;2023-06-14T01:57:31;100330.59;;;12.84;76.87
66681;BME280;53575;51.366;12.350;2023-06-14T01:59:57;100331.50;;;12.82;77.04
66681;BME280;53575;51.366;12.350;2023-06-14T02:02:22;100339.56;;;12.71;77.33
66681;BME280;53575;51.366;12.350;2023-06-14T02:04:48;100334.44;;;12.63;77.83
66681;BME280;53575;51.366;12.350;2023-06-14T02:07:14;100336.97;;;12.68;77.67
66681;BME280;53575;51.366;12.350;2023-06-14T02:09:40;100341.47;;;12.60;78.16
66681;BME280;53575;51.366;12.350;2023-06-14T02:12:06;100342.44;;;12.53;78.23
66681;BME280;53575;51.366;12.350;2023-06-14T02:14:32;100344.22;;;12.49;78.45
66681;BME280;53575;51.366;12.350;2023-06-14T02:16:59;100340.75;;;12.47;78.86
66681;BME280;53575;51.366;12.350;2023-06-14T02:19:26;100341.56;;;12.51;78.77
66681;BME280;53575;51.366;12.350;2023-06-14T02:21:51;100337.16;;;12.54;78.45
66681;BME280;53575;51.366;12.350;2023-06-14T02:24:17;100344.31;;;12.43;79.04
66681;BME280;53575;51.366;12.350;2023-06-14T02:26:43;100346.00;;;12.47;79.40
66681;BME280;53575;51.366;12.350;2023-06-14T02:29:08;100341.59;;;12.49;78.80
66681;BME280;53575;51.366;12.350;2023-06-14T02:31:36;100344.19;;;12.51;78.85
66681;BME280;53575;51.366;12.350;2023-06-14T02:34:02;100351.22;;;12.49;79.30
66681;BME280;53575;51.366;12.350;2023-06-14T02:36:27;100349.56;;;12.40;79.55
66681;BME280;53575;51.366;12.350;2023-06-14T02:38:55;100358.34;;;12.39;79.69
66681;BME280;53575;51.366;12.350;2023-06-14T02:41:23;100352.19;;;12.41;79.53
66681;BME280;53575;51.366;12.350;2023-06-14T02:43:48;100360.06;;;12.40;79.77
66681;BME280;53575;51.366;12.350;2023-06-14T02:46:14;100360.13;;;12.35;79.92
66681;BME280;53575;51.366;12.350;2023-06-14T02:48:40;100356.69;;;12.32;80.39
66681;BME280;53575;51.366;12.350;2023-06-14T02:51:05;100351.41;;;12.36;80.29
66681;BME280;53575;51.366;12.350;2023-06-14T02:53:31;100352.34;;;12.28;80.62
66681;BME280;53575;51.366;12.350;2023-06-14T02:55:56;100362.00;;;12.26;80.65
66681;BME280;53575;51.366;12.350;2023-06-14T02:58:22;100359.34;;;12.29;80.30
66681;BME280;53575;51.366;12.350;2023-06-14T03:00:50;100357.63;;;12.26;81.07
66681;BME280;53575;51.366;12.350;2023-06-14T03:03:17;100366.41;;;12.22;81.09
66681;BME280;53575;51.366;12.350;2023-06-14T03:05:44;100362.03;;;12.23;81.05
66681;BME280;53575;51.366;12.350;2023-06-14T03:08:15;100362.94;;;12.22;81.22
66681;BME280;53575;51.366;12.350;2023-06-14T03:10:52;100365.59;;;12.17;81.32
66681;BME280;53575;51.366;12.350;2023-06-14T03:13:18;100366.41;;;12.20;80.92
66681;BME280;53575;51.366;12.350;2023-06-14T03:15:46;100366.41;;;12.22;81.17
66681;BME280;53575;51.366;12.350;2023-06-14T03:18:12;100363.78;;;12.20;81.37
66681;BME280;53575;51.366;12.350;2023-06-14T03:20:40;100368.28;;;12.09;81.95
66681;BME280;53575;51.366;12.350;2023-06-14T03:23:06;100374.34;;;12.17;81.81
66681;BME280;53575;51.366;12.350;2023-06-14T03:25:32;100362.97;;;12.17;81.64
66681;BME280;53575;51.366;12.350;2023-06-14T03:28:01;100374.34;;;12.16;81.52
66681;BME280;53575;51.366;12.350;2023-06-14T03:30:26;100370.97;;;12.06;81.96
66681;BME280;53575;51.366;12.350;2023-06-14T03:32:52;100380.53;;;12.10;81.87
66681;BME280;53575;51.366;12.350;2023-06-14T03:35:18;100382.31;;;12.07;81.95
66681;BME280;53575;51.366;12.350;2023-06-14T03:37:44;100383.19;;;12.04;82.28
66681;BME280;53575;51.366;12.350;2023-06-14T03:40:11;100381.44;;;12.06;82.17
66681;BME280;53575;51.366;12.350;2023-06-14T03:42:37;100389.25;;;12.09;82.17
66681;BME280;53575;51.366;12.350;2023-06-14T03:45:03;100385.75;;;12.10;82.44
66681;BME280;53575;51.366;12.350;2023-06-14T03:47:29;100388.38;;;12.10;82.33
66681;BME280;53575;51.366;12.350;2023-06-14T03:49:54;100397.97;;;12.11;82.32
66681;BME280;53575;51.366;12.350;2023-06-14T03:52:20;100397.06;;;12.12;82.59
66681;BME280;53575;51.366;12.350;2023-06-14T03:54:47;100395.41;;;12.05;83.07
66681;BME280;53575;51.366;12.350;2023-06-14T03:57:12;100397.09;;;12.14;82.48
66681;BME280;53575;51.366;12.350;2023-06-14T03:59:38;100400.47;;;12.20;82.62
66681;BME280;53575;51.366;12.350;2023-06-14T04:02:03;100403.03;;;12.27;82.04
66681;BME280;53575;51.366;12.350;2023-06-14T04:04:29;100407.47;;;12.22;82.53
66681;BME280;53575;51.366;12.350;2023-06-14T04:06:57;100401.28;;;12.29;82.12
66681;BME280;53575;51.366;12.350;2023-06-14T04:09:24;100399.56;;;12.25;82.53
66681;BME280;53575;51.366;12.350;2023-06-14T04:11:51;100402.97;;;12.33;82.23
66681;BME280;53575;51.366;12.350;2023-06-14T04:14:18;100404.66;;;12.35;82.41
66681;BME280;53575;51.366;12.350;2023-06-14T04:16:44;100414.31;;;12.32;82.39
66681;BME280;53575;51.366;12.350;2023-06-14T04:19:09;100407.25;;;12.38;82.10
66681;BME280;53575;51.366;12.350;2023-06-14T04:21:34;100403.75;;;12.39;82.26
66681;BME280;53575;51.366;12.350;2023-06-14T04:24:00;100411.50;;;12.47;81.76
66681;BME280;53575;51.366;12.350;2023-06-14T04:26:27;100407.22;;;12.41;82.40
66681;BME280;53575;51.366;12.350;2023-06-14T04:28:59;100413.28;;;12.47;82.24
66681;BME280;53575;51.366;12.350;2023-06-14T04:31:30;100412.41;;;12.46;82.49
66681;BME280;53575;51.366;12.350;2023-06-14T04:33:59;100421.13;;;12.48;82.48
66681;BME280;53575;51.366;12.350;2023-06-14T04:36:24;100418.50;;;12.47;83.21
66681;BME280;53575;51.366;12.350;2023-06-14T04:38:50;100422.69;;;12.61;81.88
66681;BME280;53575;51.366;12.350;2023-06-14T04:41:22;100419.19;;;12.64;81.99
66681;BME280;53575;51.366;12.350;2023-06-14T04:43:49;100412.19;;;12.64;82.09
66681;BME280;53575;51.366;12.350;2023-06-14T04:46:14;100412.91;;;12.74;81.82
66681;BME280;53575;51.366;12.350;2023-06-14T04:48:41;100412.78;;;12.85;81.42
66681;BME280;53575;51.366;12.350;2023-06-14T04:51:08;100411.09;;;12.82;81.26
66681;BME280;53575;51.366;12.350;2023-06-14T04:53:34;100414.53;;;12.86;81.09
66681;BME280;53575;51.366;12.350;2023-06-14T04:56:00;100411.84;;;12.90;81.24
66681;BME280;53575;51.366;12.350;2023-06-14T04:58:26;100416.94;;;13.01;80.99
66681;BME280;53575;51.366;12.350;2023-06-14T05:00:52;100413.38;;;13.05;80.38
66681;BME280;53575;51.366;12.350;2023-06-14T05:03:18;100419.44;;;13.09;80.25
66681;BME280;53575;51.366;12.350;2023-06-14T05:05:46;100413.31;;;13.10;80.49
66681;BME280;53575;51.366;12.350;2023-06-14T05:08:11;100413.19;;;13.17;80.41
66681;BME280;53575;51.366;12.350;2023-06-14T05:10:36;100417.53;;;13.18;80.24
66681;BME280;53575;51.366;12.350;2023-06-14T05:13:02;100423.59;;;13.24;80.49
66681;BME280;53575;51.366;12.350;2023-06-14T05:15:28;100425.19;;;13.34;79.95
66681;BME280;53575;51.366;12.350;2023-06-14T05:17:54;100421.78;;;13.29;80.34
66681;BME280;53575;51.366;12.350;2023-06-14T05:20:24;100424.25;;;13.38;79.76
66681;BME280;53575;51.366;12.350;2023-06-14T05:22:51;100430.38;;;13.40;79.72
66681;BME280;53575;51.366;12.350;2023-06-14T05:25:17;100432.91;;;13.45;79.66
66681;BME280;53575;51.366;12.350;2023-06-14T05:27:43;100430.94;;;13.57;79.43
66681;BME280;53575;51.366;12.350;2023-06-14T05:30:08;100435.25;;;13.63;78.73
66681;BME280;53575;51.366;12.350;2023-06-14T05:32:34;100438.59;;;13.71;78.63
66681;BME280;53575;51.366;12.350;2023-06-14T05:34:59;100438.56;;;13.74;78.81
66681;BME280;53575;51.366;12.350;2023-06-14T05:37:25;100444.75;;;13.70;79.00
66681;BME280;53575;51.366;12.350;2023-06-14T05:39:50;100445.50;;;13.77;78.62
66681;BME280;53575;51.366;12.350;2023-06-14T05:42:16;100440.97;;;13.86;78.42
66681;BME280;53575;51.366;12.350;2023-06-14T05:44:41;100447.72;;;14.01;77.69
66681;BME280;53575;51.366;12.350;2023-06-14T05:47:07;100445.13;;;13.98;77.62
66681;BME280;53575;51.366;12.350;2023-06-14T05:49:32;100445.09;;;14.01;77.89
66681;BME280;53575;51.366;12.350;2023-06-14T05:51:57;100441.44;;;14.08;78.10
66681;BME280;53575;51.366;12.350;2023-06-14T05:54:23;100453.50;;;14.19;77.28
66681;BME280;53575;51.366;12.350;2023-06-14T05:56:48;100449.88;;;14.27;77.13
66681;BME280;53575;51.366;12.350;2023-06-14T05:59:14;100451.38;;;14.39;76.41
66681;BME280;53575;51.366;12.350;2023-06-14T06:01:39;100448.66;;;14.44;76.46
66681;BME280;53575;51.366;12.350;2023-06-14T06:04:05;100450.31;;;14.48;75.99
66681;BME280;53575;51.366;12.350;2023-06-14T06:06:31;100461.66;;;14.53;75.94
66681;BME280;53575;51.366;12.350;2023-06-14T06:08:57;100454.56;;;14.56;75.88
66681;BME280;53575;51.366;12.350;2023-06-14T06:11:23;100460.63;;;14.61;75.41
66681;BME280;53575;51.366;12.350;2023-06-14T06:13:49;100464.81;;;14.70;74.83
66681;BME280;53575;51.366;12.350;2023-06-14T06:16:14;100464.59;;;14.79;74.56
66681;BME280;53575;51.366;12.350;2023-06-14T06:18:40;100465.66;;;14.71;74.59
66681;BME280;53575;51.366;12.350;2023-06-14T06:21:05;100461.81;;;14.89;74.67
66681;BME280;53575;51.366;12.350;2023-06-14T06:23:31;100464.28;;;14.95;74.25
66681;BME280;53575;51.366;12.350;2023-06-14T06:25:56;100462.72;;;14.86;75.13
66681;BME280;53575;51.366;12.350;2023-06-14T06:28:22;100459.53;;;15.12;73.41
66681;BME280;53575;51.366;12.350;2023-06-14T06:30:47;100462.03;;;15.17;72.75
66681;BME280;53575;51.366;12.350;2023-06-14T06:33:13;100464.44;;;15.26;72.08
66681;BME280;53575;51.366;12.350;2023-06-14T06:35:39;100467.09;;;15.26;72.23
66681;BME280;53575;51.366;12.350;2023-06-14T06:38:04;100461.50;;;15.40;71.53
66681;BME280;53575;51.366;12.350;2023-06-14T06:40:30;100468.38;;;15.45;71.66
66681;BME280;53575;51.366;12.350;2023-06-14T06:42:55;100477.00;;;15.53;71.22
66681;BME280;53575;51.366;12.350;2023-06-14T06:45:21;100469.91;;;15.55;71.05
66681;BME280;53575;51.366;12.350;2023-06-14T06:47:48;100468.06;;;15.59;70.86
66681;BME280;53575;51.366;12.350;2023-06-14T06:50:14;100476.72;;;15.66;70.61
66681;BME280;53575;51.366;12.350;2023-06-14T06:52:39;100474.84;;;15.71;70.41
66681;BME280;53575;51.366;12.350;2023-06-14T06:55:05;100471.94;;;15.81;69.99
66681;BME280;53575;51.366;12.350;2023-06-14T06:57:31;100473.47;;;15.90;69.40
66681;BME280;53575;51.366;12.350;2023-06-14T06:59:57;100484.88;;;15.91;69.58
66681;BME280;53575;51.366;12.350;2023-06-14T07:02:22;100480.13;;;16.05;68.39
66681;BME280;53575;51.366;12.350;2023-06-14T07:04:48;100486.19;;;16.08;68.04
66681;BME280;53575;51.366;12.350;2023-06-14T07:07:13;100490.31;;;16.19;68.07
66681;BME280;53575;51.366;12.350;2023-06-14T07:09:38;100478.56;;;16.30;68.34
66681;BME280;53575;51.366;12.350;2023-06-14T07:12:04;100483.59;;;16.40;66.32
66681;BME280;53575;51.366;12.350;2023-06-14T07:14:30;100489.84;;;16.36;65.88
66681;BME280;53575;51.366;12.350;2023-06-14T07:16:55;100484.56;;;16.36;66.13
66681;BME280;53575;51.366;12.350;2023-06-14T07:19:21;100486.06;;;16.46;66.47
66681;BME280;53575;51.366;12.350;2023-06-14T07:21:46;100489.44;;;16.51;65.69
66681;BME280;53575;51.366;12.350;2023-06-14T07:24:11;100489.28;;;16.57;64.93
66681;BME280;53575;51.366;12.350;2023-06-14T07:26:37;100488.41;;;16.56;64.71
66681;BME280;53575;51.366;12.350;2023-06-14T07:29:03;100493.69;;;16.56;64.20
66681;BME280;53575;51.366;12.350;2023-06-14T07:31:28;100488.94;;;16.69;64.40
66681;BME280;53575;51.366;12.350;2023-06-14T07:33:54;100495.78;;;16.76;64.30
66681;BME280;53575;51.366;12.350;2023-06-14T07:36:19;100491.22;;;16.83;64.17
66681;BME280;53575;51.366;12.350;2023-06-14T07:38:46;100489.22;;;16.91;63.77
66681;BME280;53575;51.366;12.350;2023-06-14T07:41:11;100497.63;;;17.04;62.67
66681;BME280;53575;51.366;12.350;2023-06-14T07:43:36;100491.19;;;17.13;62.09
66681;BME280;53575;51.366;12.350;2023-06-14T07:46:02;100489.09;;;17.24;61.86
66681;BME280;53575;51.366;12.350;2023-06-14T07:48:28;100485.56;;;17.25;61.40
66681;BME280;53575;51.366;12.350;2023-06-14T07:50:53;100484.53;;;17.29;60.35
66681;BME280;53575;51.366;12.350;2023-06-14T07:53:18;100491.47;;;17.33;61.15
66681;BME280;53575;51.366;12.350;2023-06-14T07:55:44;100500.00;;;17.41;61.19
66681;BME280;53575;51.366;12.350;2023-06-14T07:58:09;100499.78;;;17.47;59.16
66681;BME280;53575;51.366;12.350;2023-06-14T08:00:36;100496.25;;;17.48;59.02
66681;BME280;53575;51.366;12.350;2023-06-14T08:03:01;100497.69;;;17.59;58.50
66681;BME280;53575;51.366;12.350;2023-06-14T08:05:27;100494.91;;;17.63;59.26
66681;BME280;53575;51.366;12.350;2023-06-14T08:07:53;100491.03;;;17.73;58.10
66681;BME280;53575;51.366;12.350;2023-06-14T08:10:20;100491.03;;;17.75;58.97
66681;BME280;53575;51.366;12.350;2023-06-14T08:12:46;100495.81;;;17.90;58.25
66681;BME280;53575;51.366;12.350;2023-06-14T08:15:12;100501.53;;;18.03;58.10
66681;BME280;53575;51.366;12.350;2023-06-14T08:17:37;100496.00;;;18.11;57.80
66681;BME280;53575;51.366;12.350;2023-06-14T08:20:03;100502.88;;;18.16;56.87
66681;BME280;53575;51.366;12.350;2023-06-14T08:22:31;100501.22;;;18.12;55.53
66681;BME280;53575;51.366;12.350;2023-06-14T08:24:59;100497.78;;;18.10;55.43
66681;BME280;53575;51.366;12.350;2023-06-14T08:27:26;100498.81;;;18.06;56.64
66681;BME280;53575;51.366;12.350;2023-06-14T08:29:52;100502.16;;;18.11;55.02
66681;BME280;53575;51.366;12.350;2023-06-14T08:32:17;100496.00;;;18.11;55.66
66681;BME280;53575;51.366;12.350;2023-06-14T08:34:42;100489.75;;;18.13;55.97
66681;BME280;53575;51.366;12.350;2023-06-14T08:37:08;100491.75;;;18.32;55.79
66681;BME280;53575;51.366;12.350;2023-06-14T08:39:33;100494.16;;;18.38;55.41
66681;BME280;53575;51.366;12.350;2023-06-14T08:42:01;100487.56;;;18.49;55.24
66681;BME280;53575;51.366;12.350;2023-06-14T08:44:27;100489.56;;;18.68;54.84
66681;BME280;53575;51.366;12.350;2023-06-14T08:46:55;100481.81;;;18.87;53.98
66681;BME280;53575;51.366;12.350;2023-06-14T08:49:22;100478.03;;;18.94;51.51
66681;BME280;53575;51.366;12.350;2023-06-14T08:51:57;100482.41;;;18.95;51.85
66681;BME280;53575;51.366;12.350;2023-06-14T08:54:23;100485.56;;;18.81;51.76
66681;BME280;53575;51.366;12.350;2023-06-14T08:56:49;100485.28;;;18.89;52.93
66681;BME280;53575;51.366;12.350;2023-06-14T08:59:17;100477.84;;;18.98;52.88
66681;BME280;53575;51.366;12.350;2023-06-14T09:01:43;100480.84;;;19.13;50.92
66681;BME280;53575;51.366;12.350;2023-06-14T09:04:10;100484.81;;;19.01;51.11
66681;BME280;53575;51.366;12.350;2023-06-14T09:06:36;100483.78;;;19.05;49.15
66681;BME280;53575;51.366;12.350;2023-06-14T09:09:02;100485.50;;;19.06;50.17
66681;BME280;53575;51.366;12.350;2023-06-14T09:11:30;100492.69;;;19.03;49.58
66681;BME280;53575;51.366;12.350;2023-06-14T09:13:56;100488.38;;;19.00;50.28
66681;BME280;53575;51.366;12.350;2023-06-14T09:16:21;100495.19;;;19.29;50.88
66681;BME280;53575;51.366;12.350;2023-06-14T09:18:47;100486.97;;;19.59;50.11
66681;BME280;53575;51.366;12.350;2023-06-14T09:21:14;100494.44;;;19.71;48.40
66681;BME280;53575;51.366;12.350;2023-06-14T09:23:42;100486.88;;;19.62;47.89
66681;BME280;53575;51.366;12.350;2023-06-14T09:26:12;100488.41;;;19.67;48.50
66681;BME280;53575;51.366;12.350;2023-06-14T09:28:55;100499.09;;;19.86;47.90
66681;BME280;53575;51.366;12.350;2023-06-14T09:31:21;100500.00;;;20.07;46.58
66681;BME280;53575;51.366;12.350;2023-06-14T09:33:49;100506.59;;;20.19;45.06
66681;BME280;53575;51.366;12.350;2023-06-14T09:36:20;100495.53;;;19.87;44.75
66681;BME280;53575;51.366;12.350;2023-06-14T09:39:12;100496.88;;;19.98;45.18
66681;BME280;53575;51.366;12.350;2023-06-14T09:41:42;100503.19;;;20.15;45.49
66681;BME280;53575;51.366;12.350;2023-06-14T09:44:10;100487.19;;;20.37;44.44
66681;BME280;53575;51.366;12.350;2023-06-14T09:46:37;100495.19;;;20.58;44.34
66681;BME280;53575;51.366;12.350;2023-06-14T09:49:04;100501.44;;;20.76;44.35
66681;BME280;53575;51.366;12.350;2023-06-14T09:51:30;100499.97;;;20.89;43.41
66681;BME280;53575;51.366;12.350;2023-06-14T09:53:59;100489.41;;;20.87;43.74
66681;BME280;53575;51.366;12.350;2023-06-14T09:56:30;100502.63;;;20.50;44.65
66681;BME280;53575;51.366;12.350;2023-06-14T09:58:57;100498.34;;;20.45;45.11
66681;BME280;53575;51.366;12.350;2023-06-14T10:01:27;100482.00;;;20.75;44.30
66681;BME280;53575;51.366;12.350;2023-06-14T10:04:13;100492.94;;;20.88;45.42
66681;BME280;53575;51.366;12.350;2023-06-14T10:06:43;100486.34;;;21.34;44.12
66681;BME280;53575;51.366;12.350;2023-06-14T10:09:11;100481.88;;;21.35;42.98
66681;BME280;53575;51.366;12.350;2023-06-14T10:11:37;100484.31;;;21.39;43.42
66681;BME280;53575;51.366;12.350;2023-06-14T10:14:09;100480.78;;;21.58;42.48
66681;BME280;53575;51.366;12.350;2023-06-14T10:16:56;100493.31;;;21.73;42.52
66681;BME280;53575;51.366;12.350;2023-06-14T10:19:29;100490.06;;;22.03;41.81
66681;BME280;53575;51.366;12.350;2023-06-14T10:22:17;100483.19;;;22.33;41.16
66681;BME280;53575;51.366;12.350;2023-06-14T10:24:44;100492.72;;;22.20;41.63
66681;BME280;53575;51.366;12.350;2023-06-14T10:27:13;100490.72;;;22.25;41.76
66681;BME280;53575;51.366;12.350;2023-06-14T10:32:25;100489.94;;;21.70;42.47
66681;BME280;53575;51.366;12.350;2023-06-14T10:35:01;100488.84;;;21.56;43.12
66681;BME280;53575;51.366;12.350;2023-06-14T10:37:27;100496.25;;;21.50;42.78
66681;BME280;53575;51.366;12.350;2023-06-14T10:39:53;100490.97;;;21.48;42.48
66681;BME280;53575;51.366;12.350;2023-06-14T10:42:19;100491.66;;;21.34;42.67
66681;BME280;53575;51.366;12.350;2023-06-14T10:44:45;100475.50;;;21.39;42.96
66681;BME280;53575;51.366;12.350;2023-06-14T10:47:27;100479.72;;;21.43;42.85
66681;BME280;53575;51.366;12.350;2023-06-14T10:52:25;100483.09;;;21.83;42.60
66681;BME280;53575;51.366;12.350;2023-06-14T10:57:25;100472.94;;;22.26;41.82
66681;BME280;53575;51.366;12.350;2023-06-14T10:59:51;100472.69;;;22.30;40.92
66681;BME280;53575;51.366;12.350;2023-06-14T11:04:48;100472.94;;;22.26;41.15
66681;BME280;53575;51.366;12.350;2023-06-14T11:10:20;100466.59;;;22.61;41.70
66681;BME280;53575;51.366;12.350;2023-06-14T11:12:41;100469.00;;;22.66;41.63
66681;BME280;53575;51.366;12.350;2023-06-14T11:15:08;100467.97;;;22.86;40.83
66681;BME280;53575;51.366;12.350;2023-06-14T11:17:33;100461.19;;;22.96;40.91
66681;BME280;53575;51.366;12.350;2023-06-14T11:20:12;100454.13;;;23.27;40.74
66681;BME280;53575;51.366;12.350;2023-06-14T11:22:43;100453.94;;;23.46;40.65
66681;BME280;53575;51.366;12.350;2023-06-14T11:25:09;100454.91;;;23.45;40.16
66681;BME280;53575;51.366;12.350;2023-06-14T11:27:35;100463.66;;;22.83;40.64
66681;BME280;53575;51.366;12.350;2023-06-14T11:30:01;100460.13;;;22.50;41.54
66681;BME280;53575;51.366;12.350;2023-06-14T11:32:26;100465.44;;;22.67;41.17
66681;BME280;53575;51.366;12.350;2023-06-14T11:34:52;100445.94;;;22.67;40.61
66681;BME280;53575;51.366;12.350;2023-06-14T11:37:17;100443.44;;;22.46;40.83
66681;BME280;53575;51.366;12.350;2023-06-14T11:39:43;100444.13;;;22.67;41.47
66681;BME280;53575;51.366;12.350;2023-06-14T11:42:15;100439.88;;;22.96;40.52
66681;BME280;53575;51.366;12.350;2023-06-14T11:44:41;100447.59;;;23.01;40.39
66681;BME280;53575;51.366;12.350;2023-06-14T11:47:06;100438.75;;;23.32;39.70
66681;BME280;53575;51.366;12.350;2023-06-14T11:49:36;100435.19;;;23.63;40.47
66681;BME280;53575;51.366;12.350;2023-06-14T11:52:01;100440.09;;;24.01;39.05
66681;BME280;53575;51.366;12.350;2023-06-14T11:54:27;100433.97;;;24.58;38.25
66681;BME280;53575;51.366;12.350;2023-06-14T11:56:53;100434.78;;;24.87;37.29
66681;BME280;53575;51.366;12.350;2023-06-14T11:59:18;100426.75;;;25.15;37.22
66681;BME280;53575;51.366;12.350;2023-06-14T12:01:45;100437.31;;;25.31;37.47
66681;BME280;53575;51.366;12.350;2023-06-14T12:04:10;100420.28;;;25.59;36.81
66681;BME280;53575;51.366;12.350;2023-06-14T12:06:36;100426.25;;;25.23;37.13
66681;BME280;53575;51.366;12.350;2023-06-14T12:09:05;100439.25;;;24.00;38.24
66681;BME280;53575;51.366;12.350;2023-06-14T12:11:37;100435.41;;;23.28;39.83
66681;BME280;53575;51.366;12.350;2023-06-14T12:14:08;100436.47;;;23.56;39.71
66681;BME280;53575;51.366;12.350;2023-06-14T12:16:35;100430.69;;;23.64;39.17
66681;BME280;53575;51.366;12.350;2023-06-14T12:19:13;100433.25;;;23.65;39.20
66681;BME280;53575;51.366;12.350;2023-06-14T12:21:39;100428.13;;;23.16;40.60
66681;BME280;53575;51.366;12.350;2023-06-14T12:24:08;100420.63;;;22.91;41.05
66681;BME280;53575;51.366;12.350;2023-06-14T12:26:40;100440.63;;;22.82;41.40
66681;BME280;53575;51.366;12.350;2023-06-14T12:29:08;100430.72;;;22.84;41.66
66681;BME280;53575;51.366;12.350;2023-06-14T12:31:34;100431.28;;;22.91;41.13
66681;BME280;53575;51.366;12.350;2023-06-14T12:33:59;100429.38;;;22.93;41.11
66681;BME280;53575;51.366;12.350;2023-06-14T12:36:25;100425.63;;;23.13;41.22
66681;BME280;53575;51.366;12.350;2023-06-14T12:38:51;100432.31;;;23.20;41.37
66681;BME280;53575;51.366;12.350;2023-06-14T12:41:21;100425.22;;;23.35;41.05
66681;BME280;53575;51.366;12.350;2023-06-14T12:43:47;100429.13;;;23.29;41.15
66681;BME280;53575;51.366;12.350;2023-06-14T12:46:13;100427.50;;;22.95;42.49
66681;BME280;53575;51.366;12.350;2023-06-14T12:48:38;100425.06;;;22.42;44.28
66681;BME280;53575;51.366;12.350;2023-06-14T12:51:03;100430.16;;;22.11;45.15
66681;BME280;53575;51.366;12.350;2023-06-14T12:53:29;100425.50;;;22.17;44.92
66681;BME280;53575;51.366;12.350;2023-06-14T12:55:54;100434.25;;;22.01;45.08
66681;BME280;53575;51.366;12.350;2023-06-14T12:58:20;100432.72;;;22.14;44.58
66681;BME280;53575;51.366;12.350;2023-06-14T13:00:46;100430.97;;;22.31;44.12